Time;durP1;ratioP1;P1;durP2;ratioP2;P2;SDS_P1;SDS_P2;PMS_P1;PMS_P2;Temp;Humidity;BMP_temperature;BMP_pressure;BME280_temperature;BME280_humidity;BME280_pressure;Samples;Min_cycle;Max_cycle;Signal;HPM_P1;HPM_P2
2022/07/28 00:01:56;;;;;;;10.23;4.90;;;20.60;99.90;;;;;;4666977;30;20414;-82
2022/07/28 00:04:25;;;;;;;10.05;5.10;;;21.10;99.90;;;;;;4668660;30;20038;-82
2022/07/28 00:06:50;;;;;;;9.63;5.03;;;21.00;99.90;;;;;;4668447;30;20034;-81
2022/07/28 00:09:19;;;;;;;11.90;5.40;;;20.40;99.90;;;;;;4668108;30;20505;-82
2022/07/28 00:11:45;;;;;;;13.07;5.78;;;20.40;99.90;;;;;;4666924;30;20117;-84
2022/07/28 00:14:14;;;;;;;9.30;5.28;;;20.40;99.90;;;;;;4666496;30;20320;-83
2022/07/28 00:16:40;;;;;;;12.18;6.40;;;20.30;99.90;;;;;;4668116;30;20266;-83
2022/07/28 00:19:08;;;;;;;11.65;5.40;;;20.20;99.90;;;;;;4668315;30;20053;-83
2022/07/28 00:21:34;;;;;;;9.52;5.20;;;20.30;99.90;;;;;;4668155;30;20130;-84
2022/07/28 00:24:00;;;;;;;12.60;5.90;;;19.00;99.90;;;;;;4668145;30;20727;-83
2022/07/28 00:26:26;;;;;;;13.27;6.00;;;20.10;99.90;;;;;;4667923;30;20121;-83
2022/07/28 00:28:55;;;;;;;13.43;5.57;;;20.00;99.90;;;;;;4666478;30;20045;-84
2022/07/28 00:31:28;;;;;;;13.20;5.57;;;20.50;99.90;;;;;;4666460;30;20137;-82
2022/07/28 00:33:54;;;;;;;12.10;6.25;;;19.90;99.90;;;;;;4666455;30;20481;-83
2022/07/28 00:36:20;;;;;;;14.75;6.28;;;20.00;99.90;;;;;;4667855;30;20212;-83
2022/07/28 00:38:49;;;;;;;12.52;5.78;;;20.00;99.90;;;;;;4666356;30;20374;-84
2022/07/28 00:41:18;;;;;;;12.18;5.57;;;20.30;99.90;;;;;;4667923;30;20542;-83
2022/07/28 00:43:52;;;;;;;11.48;6.47;;;20.40;99.90;;;;;;4666414;30;20095;-85
2022/07/28 00:46:20;;;;;;;11.40;5.65;;;20.10;99.90;;;;;;4666152;30;20644;-84
2022/07/28 00:48:49;;;;;;;16.83;8.45;;;20.10;99.90;;;;;;4666428;30;20038;-84
2022/07/28 00:51:23;;;;;;;11.85;6.95;;;20.10;99.90;;;;;;4668147;30;20268;-83
2022/07/28 00:53:49;;;;;;;15.65;7.85;;;;;;;;;;4667939;30;20037;-84
2022/07/28 00:56:35;;;;;;;15.50;6.93;;;20.10;99.90;;;;;;4667393;30;20049;-84
2022/07/28 00:59:01;;;;;;;13.43;6.43;;;20.10;99.90;;;;;;4665920;30;20049;-84
2022/07/28 01:01:27;;;;;;;17.83;8.23;;;21.70;99.90;;;;;;4666512;30;20438;-81
2022/07/28 01:04:22;;;;;;;11.65;6.40;;;20.10;99.90;;;;;;4667235;30;20523;-83
2022/07/28 01:07:03;;;;;;;15.05;7.47;;;18.40;99.90;;;;;;4668040;30;20853;-81
2022/07/28 01:09:55;;;;;;;12.82;6.22;;;20.00;99.90;;;;;;4666205;30;20050;-82
2022/07/28 01:13:01;;;;;;;14.43;6.78;;;20.00;99.90;;;;;;4666271;30;20621;-82
2022/07/28 01:15:39;;;;;;;10.45;5.65;;;20.10;99.90;;;;;;4667758;30;20523;-84
2022/07/28 01:18:19;;;;;;;12.73;6.68;;;20.20;99.90;;;;;;4667673;30;20514;-82
2022/07/28 01:20:49;;;;;;;13.00;5.95;;;20.00;99.90;;;;;;4667510;30;20487;-83
2022/07/28 01:23:53;;;;;;;14.32;6.43;;;20.00;99.90;;;;;;4666158;30;20046;-81
2022/07/28 01:26:46;;;;;;;13.73;6.65;;;19.90;99.90;;;;;;4667625;30;20404;-83
2022/07/28 01:29:59;;;;;;;13.52;5.03;;;19.90;99.90;;;;;;4667644;30;20050;-83
2022/07/28 01:32:54;;;;;;;10.77;4.90;;;19.90;99.90;;;;;;4613489;30;20047;-83
2022/07/28 01:35:25;;;;;;;9.75;4.68;;;19.60;99.90;;;;;;4613719;30;20043;-84
2022/07/28 01:38:16;;;;;;;10.18;4.47;;;19.80;99.90;;;;;;4613705;31;20308;-84
2022/07/28 01:40:45;;;;;;;14.10;6.03;;;19.80;99.90;;;;;;4599782;31;20047;-84
2022/07/28 01:43:15;;;;;;;15.75;5.88;;;19.70;99.90;;;;;;4613682;31;20036;-84
2022/07/28 01:45:43;;;;;;;11.80;5.90;;;19.90;99.90;;;;;;4599582;31;20063;-84
2022/07/28 01:48:12;;;;;;;10.00;4.82;;;19.80;99.90;;;;;;4613907;30;20039;-84
2022/07/28 01:50:39;;;;;;;12.00;5.78;;;19.90;99.90;;;;;;4613500;31;20052;-84
2022/07/28 01:53:09;;;;;;;13.23;5.18;;;20.00;99.90;;;;;;4613749;31;20055;-84
2022/07/28 01:55:37;;;;;;;12.60;5.72;;;20.00;99.90;;;;;;4599260;30;20074;-84
2022/07/28 01:58:05;;;;;;;14.30;5.07;;;20.10;99.90;;;;;;4599677;31;20608;-83
2022/07/28 02:00:32;;;;;;;11.23;5.30;;;20.10;99.90;;;;;;4599353;31;20130;-82
2022/07/28 02:03:05;;;;;;;12.65;6.13;;;20.10;99.90;;;;;;4613456;31;20039;-85
2022/07/28 02:05:38;;;;;;;11.43;5.80;;;20.10;99.90;;;;;;4613422;31;20309;-83
2022/07/28 02:08:06;;;;;;;11.63;6.30;;;20.10;99.90;;;;;;4612634;30;20181;-84
2022/07/28 02:10:33;;;;;;;13.25;5.97;;;20.60;99.90;;;;;;4665525;30;20046;-84
2022/07/28 02:13:00;;;;;;;14.43;6.43;;;20.10;99.90;;;;;;4667296;30;20034;-83
2022/07/28 02:15:28;;;;;;;14.63;6.15;;;20.00;99.90;;;;;;4666307;30;20046;-84
2022/07/28 02:17:54;;;;;;;14.85;7.00;;;19.90;99.90;;;;;;4670053;30;20049;-82
2022/07/28 02:20:41;;;;;;;13.63;6.80;;;19.90;99.90;;;;;;4671430;30;20454;-80
2022/07/28 02:23:08;;;;;;;14.68;6.72;;;19.80;99.90;;;;;;4671026;30;20064;-83
2022/07/28 02:25:36;;;;;;;13.80;6.25;;;19.90;99.90;;;;;;4671425;30;20267;-83
2022/07/28 02:28:06;;;;;;;16.27;6.13;;;19.80;99.90;;;;;;4671291;30;20404;-84
2022/07/28 02:30:50;;;;;;;14.68;7.07;;;19.80;99.90;;;;;;4669699;30;20077;-83
2022/07/28 02:33:40;;;;;;;11.98;5.22;;;19.60;99.90;;;;;;4669292;30;20049;-83
2022/07/28 02:36:27;;;;;;;12.95;5.82;;;20.10;99.90;;;;;;4656502;30;20546;-84
2022/07/28 02:38:57;;;;;;;11.85;6.28;;;17.60;99.90;;;;;;4670397;30;20038;-84
2022/07/28 02:41:29;;;;;;;14.10;6.63;;;19.50;99.90;;;;;;4668990;30;20123;-82
2022/07/28 02:44:02;;;;;;;16.38;7.53;;;19.20;99.90;;;;;;4670694;30;20089;-84
2022/07/28 02:46:42;;;;;;;14.77;7.47;;;19.50;99.90;;;;;;4670582;30;20553;-83
2022/07/28 02:49:26;;;;;;;11.60;5.45;;;19.90;99.90;;;;;;4669830;30;20044;-82
2022/07/28 02:52:00;;;;;;;14.57;6.10;;;19.40;99.90;;;;;;4671305;30;20045;-85
2022/07/28 02:54:37;;;;;;;12.32;6.55;;;19.40;99.90;;;;;;4671495;30;20125;-83
2022/07/28 02:57:05;;;;;;;14.82;6.10;;;19.30;99.90;;;;;;4672479;30;20136;-83
2022/07/28 02:59:33;;;;;;;15.77;6.93;;;19.20;99.90;;;;;;4672357;30;20081;-83
2022/07/28 03:01:59;;;;;;;12.77;6.57;;;19.20;99.90;;;;;;4670089;30;20187;-84
2022/07/28 03:07:20;;;;;;;16.25;6.45;;;19.70;99.90;;;;;;4670859;30;20290;-84
2022/07/28 03:09:46;;;;;;;15.35;7.28;;;22.00;99.90;;;;;;4669732;30;20042;-83
2022/07/28 03:12:13;;;;;;;13.55;7.47;;;19.00;99.90;;;;;;4669942;30;20053;-84
2022/07/28 03:14:39;;;;;;;13.85;7.03;;;19.00;99.90;;;;;;4668486;30;20765;-82
2022/07/28 03:17:05;;;;;;;15.88;7.50;;;19.00;99.90;;;;;;4669495;30;20046;-82
2022/07/28 03:19:31;;;;;;;14.02;6.57;;;;;;;;;;4667988;30;20806;-83
2022/07/28 03:21:57;;;;;;;12.85;5.93;;;;;;;;;;4669676;30;20240;-85
2022/07/28 03:24:49;;;;;;;14.18;6.25;;;18.90;99.90;;;;;;4667926;30;20335;-84
2022/07/28 03:27:22;;;;;;;13.30;6.97;;;18.90;99.90;;;;;;4668863;30;20140;-83
2022/07/28 03:30:06;;;;;;;11.93;6.72;;;18.90;99.90;;;;;;4668992;30;20042;-83
2022/07/28 03:32:34;;;;;;;16.27;6.85;;;19.00;99.90;;;;;;4667866;30;20042;-84
2022/07/28 03:35:00;;;;;;;13.73;6.07;;;19.00;99.90;;;;;;4667979;30;20128;-82
2022/07/28 03:37:39;;;;;;;13.48;6.18;;;18.90;99.90;;;;;;4667814;30;20522;-84
2022/07/28 03:40:13;;;;;;;13.90;7.53;;;18.90;99.90;;;;;;4669411;30;20046;-83
2022/07/28 03:42:44;;;;;;;13.23;7.00;;;19.10;99.90;;;;;;4667728;30;20129;-82
2022/07/28 03:45:11;;;;;;;17.85;8.15;;;18.90;99.90;;;;;;4667705;30;20610;-83
2022/07/28 03:47:37;;;;;;;15.55;8.43;;;18.80;99.90;;;;;;4669041;30;20124;-83
2022/07/28 03:50:03;;;;;;;14.75;6.82;;;18.80;99.90;;;;;;4669122;30;20342;-84
2022/07/28 03:52:28;;;;;;;16.85;7.80;;;18.90;99.90;;;;;;4668755;30;20046;-85
2022/07/28 03:55:07;;;;;;;15.07;7.93;;;18.90;99.90;;;;;;4668550;30;20042;-84
2022/07/28 03:57:32;;;;;;;15.98;8.02;;;18.90;99.90;;;;;;4651600;30;20051;-83
2022/07/28 03:59:58;;;;;;;18.95;8.50;;;18.90;99.90;;;;;;4651711;30;20046;-83
2022/07/28 04:02:48;;;;;;;17.88;9.52;;;18.80;99.90;;;;;;4650309;30;20047;-82
2022/07/28 04:05:23;;;;;;;16.70;9.45;;;18.80;99.90;;;;;;4650513;30;20109;-83
2022/07/28 04:07:48;;;;;;;17.73;8.45;;;19.00;99.90;;;;;;4650486;30;20061;-83
2022/07/28 04:10:16;;;;;;;16.98;9.40;;;19.30;99.90;;;;;;4650449;30;20051;-85
2022/07/28 04:13:14;;;;;;;17.00;9.07;;;18.90;99.90;;;;;;4651234;30;20066;-81
2022/07/28 04:15:40;;;;;;;17.38;9.25;;;19.00;99.90;;;;;;4651572;30;20109;-82
2022/07/28 04:18:06;;;;;;;20.48;9.55;;;17.40;99.90;;;;;;4651476;30;20070;-84
2022/07/28 04:20:52;;;;;;;21.20;10.82;;;19.40;99.90;;;;;;4651405;30;20066;-83
2022/07/28 04:23:19;;;;;;;18.20;10.25;;;18.30;99.90;;;;;;4651754;30;20034;-83
2022/07/28 04:25:54;;;;;;;18.15;9.10;;;19.00;99.90;;;;;;4651206;30;20057;-83
2022/07/28 04:28:20;;;;;;;17.80;9.13;;;19.10;99.90;;;;;;4652022;30;20108;-84
2022/07/28 04:30:57;;;;;;;18.08;9.48;;;19.10;99.90;;;;;;4651273;30;20058;-82
2022/07/28 04:33:23;;;;;;;18.80;9.70;;;;;;;;;;4650377;30;20206;-83
2022/07/28 04:35:51;;;;;;;20.50;8.95;;;18.30;99.90;;;;;;4651875;30;20097;-83
2022/07/28 04:38:19;;;;;;;18.80;9.70;;;19.00;99.90;;;;;;4649792;30;20043;-84
2022/07/28 04:40:46;;;;;;;22.33;9.75;;;19.00;99.90;;;;;;4649655;30;20370;-83
2022/07/28 04:43:38;;;;;;;18.40;9.23;;;18.90;99.90;;;;;;4651709;30;20474;-83
2022/07/28 04:46:04;;;;;;;21.27;11.20;;;18.60;99.90;;;;;;4650273;30;20075;-82
2022/07/28 04:48:30;;;;;;;25.65;11.10;;;18.80;99.90;;;;;;4650099;30;20441;-81
2022/07/28 04:51:15;;;;;;;18.65;9.90;;;18.90;99.90;;;;;;4651409;30;20057;-85
2022/07/28 04:53:46;;;;;;;21.02;11.15;;;20.90;99.90;;;;;;4651486;30;20220;-83
2022/07/28 04:56:12;;;;;;;15.45;8.38;;;18.90;99.90;;;;;;4658440;30;20088;-83
2022/07/28 04:58:37;;;;;;;19.13;8.43;;;19.00;99.90;;;;;;4668488;30;20354;-82
2022/07/28 05:01:03;;;;;;;19.33;10.55;;;19.00;99.90;;;;;;4668268;30;20038;-83
2022/07/28 05:03:29;;;;;;;14.73;8.90;;;19.10;99.90;;;;;;4667003;30;20054;-82
2022/07/28 05:05:55;;;;;;;15.48;7.63;;;19.20;99.90;;;;;;4668306;30;20126;-82
2022/07/28 05:08:22;;;;;;;16.80;9.73;;;19.20;99.90;;;;;;4666741;30;20042;-83
2022/07/28 05:10:57;;;;;;;14.20;6.93;;;19.20;99.90;;;;;;4666434;30;20148;-82
2022/07/28 05:13:23;;;;;;;20.17;8.20;;;19.20;99.90;;;;;;4666709;30;20133;-81
2022/07/28 05:15:58;;;;;;;15.30;8.55;;;19.30;99.90;;;;;;4668320;30;20042;-82
2022/07/28 05:18:31;;;;;;;21.90;11.00;;;19.40;99.90;;;;;;4669278;30;20652;-83
2022/07/28 05:21:06;;;;;;;15.27;8.25;;;19.70;99.90;;;;;;4669699;30;20069;-81
2022/07/28 05:23:32;;;;;;;16.55;8.70;;;19.50;99.90;;;;;;4668080;30;20038;-81
2022/07/28 05:25:57;;;;;;;18.83;9.85;;;16.70;99.90;;;;;;4669046;30;20057;-82
2022/07/28 05:28:23;;;;;;;17.05;8.98;;;19.70;99.90;;;;;;4669008;30;20069;-80
2022/07/28 05:30:49;;;;;;;17.70;9.30;;;19.70;99.90;;;;;;4667281;30;20724;-84
2022/07/28 05:33:24;;;;;;;15.40;7.65;;;19.90;99.90;;;;;;4668686;30;20034;-84
2022/07/28 05:35:58;;;;;;;19.23;9.48;;;19.90;99.90;;;;;;4668587;30;20049;-83
2022/07/28 05:38:24;;;;;;;;;;;19.90;99.90;;;;;;4669515;30;20777;-81
2022/07/28 05:40:56;;;;;;;16.90;8.98;;;20.00;99.90;;;;;;4667444;30;20108;-84
2022/07/28 05:43:22;;;;;;;19.02;9.88;;;20.00;99.90;;;;;;4667381;30;20042;-83
2022/07/28 05:46:13;;;;;;;20.00;9.60;;;20.20;99.90;;;;;;4667811;30;20042;-81
2022/07/28 05:48:39;;;;;;;15.60;8.93;;;20.70;99.90;;;;;;4668149;30;20042;-82
2022/07/28 05:51:34;;;;;;;20.50;9.85;;;20.30;99.90;;;;;;4670578;30;20462;-82
2022/07/28 05:54:00;;;;;;;19.98;10.07;;;20.40;99.90;;;;;;4670053;30;20603;-81
2022/07/28 05:56:28;;;;;;;19.88;11.35;;;20.50;99.90;;;;;;4669988;30;20062;-84
2022/07/28 05:59:00;;;;;;;18.70;10.35;;;20.60;99.90;;;;;;4671418;30;20124;-82
2022/07/28 06:01:25;;;;;;;19.40;8.95;;;20.70;99.90;;;;;;4671478;30;20259;-82
2022/07/28 06:04:20;;;;;;;15.20;8.60;;;20.70;99.90;;;;;;4671565;30;20243;-82
2022/07/28 06:06:47;;;;;;;20.27;9.80;;;20.80;99.90;;;;;;4617871;30;20602;-81
2022/07/28 06:09:25;;;;;;;18.48;10.15;;;20.90;99.90;;;;;;4617215;31;20548;-81
2022/07/28 06:11:51;;;;;;;17.95;10.10;;;21.30;99.90;;;;;;4616892;30;20352;-81
2022/07/28 06:14:17;;;;;;;17.55;10.05;;;20.90;99.90;;;;;;4616719;31;20715;-84
2022/07/28 06:16:43;;;;;;;18.05;9.93;;;20.70;99.90;;;;;;4616480;30;20523;-81
2022/07/28 06:19:09;;;;;;;16.67;9.70;;;21.20;99.90;;;;;;4616395;31;20289;-84
2022/07/28 06:21:35;;;;;;;19.02;10.30;;;21.30;99.90;;;;;;4616579;31;20433;-80
2022/07/28 06:24:10;;;;;;;19.15;10.93;;;21.50;99.90;;;;;;4616215;30;20058;-80
2022/07/28 06:26:36;;;;;;;22.33;10.25;;;21.50;99.90;;;;;;4616202;30;20058;-82
2022/07/28 06:29:03;;;;;;;14.63;9.10;;;21.40;99.90;;;;;;4616291;31;20118;-80
2022/07/28 06:31:29;;;;;;;20.40;9.88;;;21.40;99.90;;;;;;4615925;31;20369;-80
2022/07/28 06:34:19;;;;;;;17.45;9.73;;;21.50;99.90;;;;;;4616248;30;20107;-82
2022/07/28 06:36:45;;;;;;;16.63;9.80;;;21.70;99.90;;;;;;4616162;31;20039;-83
2022/07/28 06:39:13;;;;;;;19.48;10.35;;;21.30;99.90;;;;;;4616560;31;20491;-82
2022/07/28 06:41:43;;;;;;;18.42;9.18;;;;;;;;;;4616033;30;20098;-82
2022/07/28 06:44:10;;;;;;;22.38;12.00;;;21.40;99.90;;;;;;4663389;30;20046;-82
2022/07/28 06:46:57;;;;;;;21.90;11.50;;;21.20;99.90;;;;;;4668472;30;20041;-85
2022/07/28 06:49:22;;;;;;;15.45;9.85;;;21.30;99.90;;;;;;4669829;30;20160;-82
2022/07/28 06:52:00;;;;;;;17.13;9.63;;;21.10;99.90;;;;;;4669817;30;20250;-84
2022/07/28 06:54:26;;;;;;;17.90;10.02;;;;;;;;;;4668140;30;20206;-82
2022/07/28 06:56:52;;;;;;;18.52;10.00;;;;;;;;;;4669329;30;20062;-81
2022/07/28 06:59:18;;;;;;;19.65;11.68;;;21.10;99.90;;;;;;4668382;30;20042;-82
2022/07/28 07:01:44;;;;;;;18.05;9.50;;;21.00;99.90;;;;;;4667068;30;20640;-81
2022/07/28 07:04:10;;;;;;;21.02;10.00;;;21.10;99.90;;;;;;4669467;30;20034;-82
2022/07/28 07:06:35;;;;;;;20.70;11.27;;;21.30;99.90;;;;;;4669400;30;20267;-80
2022/07/28 07:09:19;;;;;;;20.63;10.73;;;21.50;99.90;;;;;;4668482;30;20049;-81
2022/07/28 07:12:02;;;;;;;18.38;10.70;;;21.70;99.90;;;;;;4668302;30;20050;-82
2022/07/28 07:14:31;;;;;;;21.75;12.65;;;18.50;99.90;;;;;;4670047;30;20121;-80
2022/07/28 07:16:57;;;;;;;21.98;11.95;;;22.20;99.90;;;;;;4667843;30;20042;-82
2022/07/28 07:19:29;;;;;;;21.98;11.98;;;22.40;99.90;;;;;;4668380;30;20101;-86
2022/07/28 07:21:55;;;;;;;19.63;10.50;;;21.30;99.90;;;;;;4669513;30;20108;-84
2022/07/28 07:24:36;;;;;;;;;;;;;;;;;;;;;
2022/07/28 07:27:16;;;;;;;17.90;11.05;;;22.70;99.90;;;;;;4669695;30;20580;-83
2022/07/28 07:30:15;;;;;;;17.45;9.98;;;22.80;99.90;;;;;;4668469;30;20045;-80
2022/07/28 07:32:55;;;;;;;19.17;9.80;;;21.10;99.90;;;;;;4615716;31;20039;-83
2022/07/28 07:35:36;;;;;;;18.33;11.57;;;23.10;99.90;;;;;;4616069;30;20054;-83
2022/07/28 07:38:03;;;;;;;19.08;9.02;;;23.30;99.90;;;;;;4602034;31;20756;-84
2022/07/28 07:40:32;;;;;;;21.20;11.35;;;23.40;99.90;;;;;;4616525;31;20043;-83
2022/07/28 07:43:04;;;;;;;20.40;11.07;;;23.60;99.90;;;;;;4602320;31;20128;-84
2022/07/28 07:45:55;;;;;;;18.38;9.52;;;23.30;99.90;;;;;;4615533;31;20040;-84
2022/07/28 07:48:39;;;;;;;15.43;9.52;;;24.30;99.90;;;;;;4583455;31;20060;-83
2022/07/28 07:51:05;;;;;;;18.65;10.48;;;23.60;99.90;;;;;;4582133;31;20125;-80
2022/07/28 07:53:40;;;;;;;19.63;11.60;;;23.40;99.90;;;;;;4582088;31;20339;-82
2022/07/28 07:56:06;;;;;;;16.40;9.70;;;23.30;99.90;;;;;;4581703;31;20435;-81
2022/07/28 07:58:31;;;;;;;15.90;9.73;;;23.30;99.90;;;;;;4581676;31;20072;-82
2022/07/28 08:00:57;;;;;;;16.15;8.20;;;23.30;99.90;;;;;;4582045;31;20055;-81
2022/07/28 08:03:23;;;;;;;16.65;8.40;;;23.30;99.90;;;;;;4581899;31;20059;-81
2022/07/28 08:05:50;;;;;;;20.50;10.68;;;23.40;99.90;;;;;;4581301;31;20040;-82
2022/07/28 08:08:16;;;;;;;16.48;10.07;;;23.30;99.90;;;;;;4581733;31;20342;-84
2022/07/28 08:10:44;;;;;;;16.00;9.73;;;23.40;99.90;;;;;;4616148;30;20080;-82
2022/07/28 08:13:26;;;;;;;;;;;;;;;;;;;;;
2022/07/28 08:15:52;;;;;;;18.90;10.05;;;23.40;99.90;;;;;;4631197;30;20433;-81
2022/07/28 08:18:20;;;;;;;18.95;9.85;;;23.40;99.90;;;;;;4631842;30;20039;-83
2022/07/28 08:20:46;;;;;;;19.73;9.63;;;23.30;99.90;;;;;;4618113;30;20098;-81
2022/07/28 08:23:12;;;;;;;17.80;10.65;;;23.20;99.90;;;;;;4631738;30;20409;-80
2022/07/28 08:25:38;;;;;;;19.00;9.75;;;23.20;99.90;;;;;;4654437;30;20136;-81
2022/07/28 08:28:04;;;;;;;19.13;10.73;;;23.20;99.90;;;;;;4667361;30;20633;-81
2022/07/28 08:30:29;;;;;;;22.55;12.15;;;23.30;99.90;;;;;;4668407;30;20042;-82
2022/07/28 08:32:55;;;;;;;16.77;10.00;;;23.40;99.90;;;;;;4666580;30;20124;-81
2022/07/28 08:35:21;;;;;;;13.75;8.18;;;23.50;99.90;;;;;;4668822;30;20042;-82
2022/07/28 08:37:47;;;;;;;17.92;9.35;;;23.50;99.90;;;;;;4667228;30;20132;-83
2022/07/28 08:40:13;;;;;;;15.85;8.02;;;;;;;;;;4666829;30;20081;-80
2022/07/28 08:43:10;;;;;;;17.02;8.75;;;23.70;99.90;;;;;;4668483;30;20046;-82
2022/07/28 08:45:39;;;;;;;18.55;10.07;;;23.80;99.90;;;;;;4668576;30;20077;-80
2022/07/28 08:48:06;;;;;;;16.80;9.57;;;23.80;99.90;;;;;;4667920;30;20065;-82
2022/07/28 08:50:32;;;;;;;19.35;9.85;;;22.40;99.90;;;;;;4667037;30;20052;-81
2022/07/28 08:53:00;;;;;;;18.50;10.35;;;23.60;99.90;;;;;;4666408;30;20042;-82
2022/07/28 08:55:27;;;;;;;16.00;9.52;;;23.40;99.90;;;;;;4667303;30;20042;-81
2022/07/28 08:57:59;;;;;;;22.08;11.27;;;23.40;99.90;;;;;;4667679;30;20215;-81
2022/07/28 09:00:34;;;;;;;18.42;10.50;;;23.40;99.90;;;;;;4667711;30;20701;-80
2022/07/28 09:03:02;;;;;;;20.05;10.73;;;23.40;99.90;;;;;;4667484;30;20543;-82
2022/07/28 09:05:31;;;;;;;21.17;11.35;;;23.30;99.90;;;;;;4666352;30;20042;-80
2022/07/28 09:07:58;;;;;;;25.17;11.05;;;23.10;99.90;;;;;;4667733;30;20038;-79
2022/07/28 09:10:31;;;;;;;19.52;12.07;;;23.10;99.90;;;;;;4667943;30;20042;-79
2022/07/28 09:12:57;;;;;;;16.75;9.85;;;21.20;99.90;;;;;;4668036;30;20046;-80
2022/07/28 09:15:23;;;;;;;22.10;11.18;;;23.10;99.90;;;;;;4667678;30;20049;-84
2022/07/28 09:17:52;;;;;;;18.42;9.38;;;23.00;99.90;;;;;;4667699;30;20227;-81
2022/07/28 09:20:22;;;;;;;17.63;10.48;;;23.00;99.90;;;;;;4666282;30;20132;-81
2022/07/28 09:23:01;;;;;;;19.15;10.15;;;23.00;99.90;;;;;;4667643;30;20603;-80
2022/07/28 09:25:32;;;;;;;16.42;8.85;;;23.00;99.90;;;;;;4668725;30;20065;-80
2022/07/28 09:28:14;;;;;;;17.70;10.10;;;23.00;99.90;;;;;;4671213;30;20121;-80
2022/07/28 09:30:48;;;;;;;18.67;10.85;;;23.10;99.90;;;;;;4669669;30;20042;-81
2022/07/28 09:33:22;;;;;;;21.98;10.38;;;23.10;99.90;;;;;;4671534;30;20256;-81
2022/07/28 09:35:54;;;;;;;18.08;10.90;;;23.00;99.90;;;;;;4671214;30;20112;-81
2022/07/28 09:38:23;;;;;;;18.25;10.45;;;23.10;99.90;;;;;;4669887;30;20599;-80
2022/07/28 09:41:03;;;;;;;16.08;9.75;;;23.10;99.90;;;;;;4670978;30;20475;-81
2022/07/28 09:43:43;;;;;;;21.27;11.10;;;23.20;99.90;;;;;;4671058;30;20034;-80
2022/07/28 09:46:12;;;;;;;17.83;10.20;;;23.40;99.90;;;;;;4669580;30;20076;-79
2022/07/28 09:48:52;;;;;;;16.98;9.27;;;23.70;99.90;;;;;;4671043;30;20034;-81
2022/07/28 09:54:12;;;;;;;14.93;8.43;;;24.80;98.80;;;;;;4667626;30;20842;-81
2022/07/28 09:56:43;;;;;;;16.80;8.50;;;24.70;99.10;;;;;;4667531;30;20053;-82
2022/07/28 09:59:10;;;;;;;14.52;7.63;;;24.90;97.70;;;;;;4667929;30;20057;-81
2022/07/28 10:01:59;;;;;;;13.20;7.57;;;25.20;97.80;;;;;;4667315;30;20081;-81
2022/07/28 10:04:36;;;;;;;12.77;7.13;;;25.60;96.30;;;;;;4667325;30;20344;-81
2022/07/28 10:07:09;;;;;;;12.88;6.35;;;25.80;95.50;;;;;;4667553;30;20434;-83
2022/07/28 10:09:54;;;;;;;10.02;5.78;;;26.00;94.70;;;;;;4667352;30;20045;-80
2022/07/28 10:12:24;;;;;;;11.60;6.55;;;26.30;93.70;;;;;;4667456;30;20121;-81
2022/07/28 10:14:53;;;;;;;8.93;5.22;;;26.60;92.20;;;;;;4667280;30;20103;-82
2022/07/28 10:17:30;;;;;;;8.82;4.35;;;26.60;91.20;;;;;;4667529;30;20038;-82
2022/07/28 10:20:05;;;;;;;8.70;4.10;;;26.80;90.60;;;;;;4667629;30;20180;-81
2022/07/28 10:22:36;;;;;;;7.60;3.80;;;26.80;88.30;;;;;;4667469;30;20096;-81
2022/07/28 10:25:14;;;;;;;8.63;4.28;;;27.40;86.90;;;;;;4652844;30;20375;-80
2022/07/28 10:27:41;;;;;;;8.13;3.75;;;27.60;88.90;;;;;;4666490;30;20038;-80
2022/07/28 10:30:08;;;;;;;7.07;3.55;;;29.20;85.70;;;;;;4667052;30;20074;-81
2022/07/28 10:32:53;;;;;;;8.65;4.78;;;28.40;83.00;;;;;;4668246;30;20044;-81
2022/07/28 10:35:20;;;;;;;8.88;5.00;;;28.40;82.20;;;;;;4669501;30;20053;-81
2022/07/28 10:38:02;;;;;;;7.88;4.00;;;28.70;82.40;;;;;;4668847;30;20447;-80
2022/07/28 10:40:43;;;;;;;10.77;5.13;;;29.00;82.70;;;;;;4669551;30;20053;-81
2022/07/28 10:43:10;;;;;;;9.07;5.35;;;28.90;81.10;;;;;;4670174;30;20465;-81
2022/07/28 10:45:46;;;;;;;8.77;4.95;;;28.90;81.00;;;;;;4669032;30;20038;-81
2022/07/28 10:48:20;;;;;;;10.00;5.32;;;28.80;81.90;;;;;;4668778;30;20533;-81
2022/07/28 10:50:52;;;;;;;11.82;6.13;;;28.90;82.20;;;;;;4668765;30;20261;-83
2022/07/28 10:53:30;;;;;;;9.38;4.85;;;29.00;79.60;;;;;;4668866;30;20308;-81
2022/07/28 10:56:08;;;;;;;9.25;4.78;;;29.00;79.70;;;;;;4670232;30;20085;-83
2022/07/28 10:58:59;;;;;;;8.00;4.65;;;29.00;78.30;;;;;;4668659;30;20054;-83
2022/07/28 11:01:40;;;;;;;10.60;4.22;;;29.10;78.60;;;;;;4668400;30;20046;-81
2022/07/28 11:04:32;;;;;;;9.48;4.82;;;28.90;76.90;;;;;;4669298;30;20208;-80
2022/07/28 11:07:12;;;;;;;10.32;4.63;;;28.70;75.70;;;;;;4660357;30;20054;-84
2022/07/28 11:09:38;;;;;;;9.45;4.75;;;28.10;78.50;;;;;;4669899;30;20524;-79
2022/07/28 11:12:07;;;;;;;9.10;4.97;;;28.10;80.60;;;;;;4668516;30;20069;-80
2022/07/28 11:14:37;;;;;;;9.65;4.82;;;27.90;81.20;;;;;;4671270;30;20250;-80
2022/07/28 11:17:06;;;;;;;9.52;4.25;;;27.60;81.90;;;;;;4670571;30;20053;-83
2022/07/28 11:19:52;;;;;;;9.25;5.05;;;27.50;82.00;;;;;;4670607;30;20293;-80
2022/07/28 11:22:26;;;;;;;8.90;4.75;;;27.30;82.80;;;;;;4673518;30;20599;-81
2022/07/28 11:25:19;;;;;;;9.85;4.40;;;27.30;84.10;;;;;;4672541;30;20065;-81
2022/07/28 11:27:53;;;;;;;7.70;4.25;;;27.70;83.00;;;;;;4670951;30;20049;-80
2022/07/28 11:30:27;;;;;;;7.50;4.43;;;28.00;80.70;;;;;;4676463;30;20045;-80
2022/07/28 11:32:57;;;;;;;10.52;5.03;;;28.60;80.30;;;;;;4673465;30;20438;-80
2022/07/28 11:35:25;;;;;;;8.95;4.50;;;29.20;79.30;;;;;;4675251;30;20546;-81
2022/07/28 11:38:00;;;;;;;8.52;4.38;;;29.90;77.10;;;;;;4677953;30;20203;-80
2022/07/28 11:41:01;;;;;;;8.60;4.80;;;29.10;76.60;;;;;;4672810;30;20046;-81
2022/07/28 11:43:29;;;;;;;7.63;4.05;;;26.60;75.70;;;;;;4617524;30;20075;-80
2022/07/28 11:46:00;;;;;;;9.48;4.15;;;29.30;73.10;;;;;;4616246;31;20054;-80
2022/07/28 11:48:28;;;;;;;8.45;4.20;;;29.30;75.60;;;;;;4616295;31;20149;-80
2022/07/28 11:51:15;;;;;;;8.13;4.35;;;29.40;72.70;;;;;;4603092;31;20044;-81
2022/07/28 11:53:46;;;;;;;7.60;3.80;;;29.80;71.90;;;;;;4617236;31;20048;-84
2022/07/28 11:56:24;;;;;;;7.88;4.35;;;30.20;71.20;;;;;;4603463;31;20634;-82
2022/07/28 11:59:01;;;;;;;8.98;4.35;;;29.80;70.30;;;;;;4618083;30;20055;-83
2022/07/28 12:01:27;;;;;;;7.28;3.42;;;30.90;68.90;;;;;;4602170;31;20354;-81
2022/07/28 12:04:08;;;;;;;7.22;4.22;;;30.90;67.40;;;;;;4616260;31;20047;-82
2022/07/28 12:06:36;;;;;;;7.13;3.83;;;30.90;67.40;;;;;;4616801;30;20044;-81
2022/07/28 12:09:13;;;;;;;8.88;4.40;;;30.90;68.00;;;;;;4616856;31;20047;-81
2022/07/28 12:11:42;;;;;;;8.68;3.97;;;30.80;65.90;;;;;;4644971;30;20129;-80
2022/07/28 12:14:15;;;;;;;8.05;3.10;;;31.30;67.10;;;;;;4670396;30;20040;-81
2022/07/28 12:16:43;;;;;;;8.15;3.38;;;32.30;65.20;;;;;;4667998;30;20097;-81
2022/07/28 12:19:13;;;;;;;7.05;3.45;;;30.80;62.40;;;;;;4668781;30;20470;-80
2022/07/28 12:21:44;;;;;;;5.97;2.88;;;31.40;62.80;;;;;;4669237;30;20132;-81
2022/07/28 12:24:25;;;;;;;7.82;4.00;;;31.50;63.60;;;;;;4667827;30;20049;-81
2022/07/28 12:26:50;;;;;;;7.70;3.55;;;31.40;62.70;;;;;;4667206;30;20037;-82
2022/07/28 12:29:16;;;;;;;6.63;3.67;;;31.20;63.10;;;;;;4668665;30;20049;-83
2022/07/28 12:31:58;;;;;;;6.53;3.00;;;31.30;63.70;;;;;;4667442;30;20045;-81
2022/07/28 12:34:28;;;;;;;7.00;3.20;;;31.40;63.10;;;;;;4668995;30;20121;-79
2022/07/28 12:37:10;;;;;;;6.80;3.33;;;31.50;61.70;;;;;;4669284;30;20069;-81
2022/07/28 12:39:41;;;;;;;7.32;3.83;;;31.50;61.60;;;;;;4669096;30;20073;-81
2022/07/28 12:42:09;;;;;;;9.27;3.70;;;31.00;63.20;;;;;;4667447;30;20053;-82
2022/07/28 12:44:37;;;;;;;6.65;3.13;;;31.10;63.30;;;;;;4668349;30;20102;-80
2022/07/28 12:47:23;;;;;;;7.03;3.13;;;31.20;62.90;;;;;;4668117;30;20034;-82
2022/07/28 12:50:13;;;;;;;6.50;2.83;;;31.10;63.10;;;;;;4667246;30;20058;-81
2022/07/28 12:52:41;;;;;;;5.97;2.85;;;30.90;61.60;;;;;;4668263;30;20053;-81
2022/07/28 12:55:25;;;;;;;5.80;2.90;;;30.80;62.80;;;;;;4668174;30;20147;-80
2022/07/28 12:57:52;;;;;;;5.93;3.13;;;30.80;62.10;;;;;;4666568;30;20544;-81
2022/07/28 13:00:24;;;;;;;6.55;3.25;;;31.00;63.10;;;;;;4667912;30;20037;-81
2022/07/28 13:03:13;;;;;;;;;;;;;;;;;;;;;
2022/07/28 13:08:38;;;;;;;7.22;3.60;;;31.90;61.00;;;;;;4668094;30;20057;-82
2022/07/28 13:11:04;;;;;;;5.75;2.75;;;32.20;59.50;;;;;;4667864;30;20050;-80
2022/07/28 13:13:30;;;;;;;5.18;2.63;;;32.50;59.30;;;;;;4667446;30;20030;-80
2022/07/28 13:16:14;;;;;;;6.57;3.00;;;32.80;59.30;;;;;;4667673;30;20038;-83
2022/07/28 13:18:42;;;;;;;5.40;2.50;;;32.90;57.90;;;;;;4667810;30;20042;-82
2022/07/28 13:21:09;;;;;;;6.45;3.03;;;33.10;57.70;;;;;;4667447;30;20051;-83